sensor_id;sensor_type;location;lat;lon;timestamp;P1;durP1;ratioP1;P2;durP2;ratioP2
151;SDS011;68;48.792;9.164;2023-02-28T00:01:13;5.70;;;5.10;;
151;SDS011;68;48.792;9.164;2023-02-28T00:03:40;6.35;;;5.15;;
151;SDS011;68;48.792;9.164;2023-02-28T00:06:08;8.10;;;5.40;;
151;SDS011;68;48.792;9.164;2023-02-28T00:08:35;7.20;;;5.47;;
151;SDS011;68;48.792;9.164;2023-02-28T00:11:02;7.55;;;5.40;;
151;SDS011;68;48.792;9.164;2023-02-28T00:13:31;9.30;;;5.25;;
151;SDS011;68;48.792;9.164;2023-02-28T00:16:01;9.93;;;5.47;;
151;SDS011;68;48.792;9.164;2023-02-28T00:18:29;9.55;;;5.72;;
151;SDS011;68;48.792;9.164;2023-02-28T00:20:56;8.57;;;5.72;;
151;SDS011;68;48.792;9.164;2023-02-28T00:23:24;11.05;;;5.70;;
151;SDS011;68;48.792;9.164;2023-02-28T00:25:51;9.38;;;5.68;;
151;SDS011;68;48.792;9.164;2023-02-28T00:28:18;7.35;;;5.75;;
151;SDS011;68;48.792;9.164;2023-02-28T00:30:46;9.32;;;5.57;;
151;SDS011;68;48.792;9.164;2023-02-28T00:33:13;6.13;;;5.55;;
151;SDS011;68;48.792;9.164;2023-02-28T00:35:40;10.35;;;6.05;;
151;SDS011;68;48.792;9.164;2023-02-28T00:38:06;6.53;;;5.60;;
151;SDS011;68;48.792;9.164;2023-02-28T00:40:33;7.32;;;5.90;;
151;SDS011;68;48.792;9.164;2023-02-28T00:43:00;10.02;;;5.63;;
151;SDS011;68;48.792;9.164;2023-02-28T00:45:28;7.88;;;5.65;;
151;SDS011;68;48.792;9.164;2023-02-28T00:47:56;9.63;;;6.20;;
151;SDS011;68;48.792;9.164;2023-02-28T00:50:24;7.18;;;5.65;;
151;SDS011;68;48.792;9.164;2023-02-28T00:52:51;6.10;;;5.15;;
151;SDS011;68;48.792;9.164;2023-02-28T00:55:18;8.15;;;5.85;;
151;SDS011;68;48.792;9.164;2023-02-28T00:57:45;7.20;;;5.45;;
151;SDS011;68;48.792;9.164;2023-02-28T01:00:12;8.32;;;6.15;;
151;SDS011;68;48.792;9.164;2023-02-28T01:02:39;4.13;;;3.65;;
151;SDS011;68;48.792;9.164;2023-02-28T01:05:07;9.50;;;6.65;;
151;SDS011;68;48.792;9.164;2023-02-28T01:07:34;10.07;;;6.25;;
151;SDS011;68;48.792;9.164;2023-02-28T01:10:01;10.05;;;6.40;;
151;SDS011;68;48.792;9.164;2023-02-28T01:12:29;9.20;;;6.03;;
151;SDS011;68;48.792;9.164;2023-02-28T01:14:56;9.75;;;6.38;;
151;SDS011;68;48.792;9.164;2023-02-28T01:17:23;8.80;;;6.43;;
151;SDS011;68;48.792;9.164;2023-02-28T01:19:53;11.85;;;6.63;;
151;SDS011;68;48.792;9.164;2023-02-28T01:22:22;8.30;;;6.18;;
151;SDS011;68;48.792;9.164;2023-02-28T01:24:48;11.23;;;6.75;;
151;SDS011;68;48.792;9.164;2023-02-28T01:27:15;10.38;;;7.18;;
151;SDS011;68;48.792;9.164;2023-02-28T01:29:42;10.55;;;6.20;;
151;SDS011;68;48.792;9.164;2023-02-28T01:32:08;8.80;;;6.70;;
151;SDS011;68;48.792;9.164;2023-02-28T01:34:35;9.80;;;6.90;;
151;SDS011;68;48.792;9.164;2023-02-28T01:37:02;11.95;;;7.30;;
151;SDS011;68;48.792;9.164;2023-02-28T01:39:30;9.77;;;7.00;;
151;SDS011;68;48.792;9.164;2023-02-28T01:41:57;10.52;;;7.38;;
151;SDS011;68;48.792;9.164;2023-02-28T01:47:29;7.88;;;6.57;;
151;SDS011;68;48.792;9.164;2023-02-28T01:49:58;9.63;;;7.30;;
151;SDS011;68;48.792;9.164;2023-02-28T01:52:28;15.05;;;7.10;;
151;SDS011;68;48.792;9.164;2023-02-28T01:54:56;8.60;;;6.65;;
151;SDS011;68;48.792;9.164;2023-02-28T01:57:28;9.02;;;7.10;;
151;SDS011;68;48.792;9.164;2023-02-28T02:00:03;10.43;;;7.15;;
151;SDS011;68;48.792;9.164;2023-02-28T02:02:34;9.65;;;7.50;;
151;SDS011;68;48.792;9.164;2023-02-28T02:05:04;10.90;;;7.60;;
151;SDS011;68;48.792;9.164;2023-02-28T02:07:33;9.60;;;7.10;;
151;SDS011;68;48.792;9.164;2023-02-28T02:10:06;11.55;;;7.90;;
151;SDS011;68;48.792;9.164;2023-02-28T02:12:47;10.48;;;7.55;;
151;SDS011;68;48.792;9.164;2023-02-28T02:15:22;11.13;;;7.40;;
151;SDS011;68;48.792;9.164;2023-02-28T02:17:53;10.32;;;7.85;;
151;SDS011;68;48.792;9.164;2023-02-28T02:20:32;16.80;;;8.30;;
151;SDS011;68;48.792;9.164;2023-02-28T02:26:20;11.27;;;8.30;;
151;SDS011;68;48.792;9.164;2023-02-28T02:32:05;11.38;;;8.43;;
151;SDS011;68;48.792;9.164;2023-02-28T02:34:52;11.63;;;8.40;;
151;SDS011;68;48.792;9.164;2023-02-28T02:37:29;10.27;;;7.80;;
151;SDS011;68;48.792;9.164;2023-02-28T02:40:03;15.52;;;8.45;;
151;SDS011;68;48.792;9.164;2023-02-28T02:42:37;13.80;;;8.27;;
151;SDS011;68;48.792;9.164;2023-02-28T02:45:09;13.02;;;8.75;;
151;SDS011;68;48.792;9.164;2023-02-28T02:47:42;11.25;;;8.20;;
151;SDS011;68;48.792;9.164;2023-02-28T02:50:13;11.85;;;8.02;;
151;SDS011;68;48.792;9.164;2023-02-28T02:52:47;10.70;;;7.70;;
151;SDS011;68;48.792;9.164;2023-02-28T02:55:17;11.32;;;8.32;;
151;SDS011;68;48.792;9.164;2023-02-28T02:57:46;12.57;;;8.27;;
151;SDS011;68;48.792;9.164;2023-02-28T03:00:16;12.30;;;8.30;;
151;SDS011;68;48.792;9.164;2023-02-28T03:02:46;10.85;;;7.88;;
151;SDS011;68;48.792;9.164;2023-02-28T03:05:17;11.60;;;8.38;;
151;SDS011;68;48.792;9.164;2023-02-28T03:07:47;10.40;;;7.80;;
151;SDS011;68;48.792;9.164;2023-02-28T03:10:27;11.05;;;7.85;;
151;SDS011;68;48.792;9.164;2023-02-28T03:13:00;9.98;;;8.07;;
151;SDS011;68;48.792;9.164;2023-02-28T03:15:53;14.88;;;9.00;;
151;SDS011;68;48.792;9.164;2023-02-28T03:18:36;11.50;;;8.38;;
151;SDS011;68;48.792;9.164;2023-02-28T03:21:14;11.32;;;8.30;;
151;SDS011;68;48.792;9.164;2023-02-28T03:23:52;11.20;;;8.63;;
151;SDS011;68;48.792;9.164;2023-02-28T03:26:25;12.40;;;9.02;;
151;SDS011;68;48.792;9.164;2023-02-28T03:28:54;12.15;;;9.30;;
151;SDS011;68;48.792;9.164;2023-02-28T03:31:29;12.38;;;8.75;;
151;SDS011;68;48.792;9.164;2023-02-28T03:33:59;15.32;;;8.90;;
151;SDS011;68;48.792;9.164;2023-02-28T03:36:32;13.48;;;8.75;;
151;SDS011;68;48.792;9.164;2023-02-28T03:39:07;13.30;;;8.68;;
151;SDS011;68;48.792;9.164;2023-02-28T03:41:38;11.52;;;8.38;;
151;SDS011;68;48.792;9.164;2023-02-28T03:44:10;12.60;;;9.48;;
151;SDS011;68;48.792;9.164;2023-02-28T03:46:41;12.70;;;9.48;;
151;SDS011;68;48.792;9.164;2023-02-28T03:49:14;12.35;;;9.70;;
151;SDS011;68;48.792;9.164;2023-02-28T03:51:44;14.23;;;9.85;;
151;SDS011;68;48.792;9.164;2023-02-28T03:54:13;13.73;;;9.43;;
151;SDS011;68;48.792;9.164;2023-02-28T03:56:45;12.50;;;9.57;;
151;SDS011;68;48.792;9.164;2023-02-28T03:59:18;13.93;;;9.85;;
151;SDS011;68;48.792;9.164;2023-02-28T04:01:51;17.85;;;9.43;;
151;SDS011;68;48.792;9.164;2023-02-28T04:04:18;13.57;;;9.77;;
151;SDS011;68;48.792;9.164;2023-02-28T04:06:46;13.82;;;9.38;;
151;SDS011;68;48.792;9.164;2023-02-28T04:09:16;12.50;;;8.43;;
151;SDS011;68;48.792;9.164;2023-02-28T04:11:45;15.05;;;9.20;;
151;SDS011;68;48.792;9.164;2023-02-28T04:14:16;13.20;;;9.50;;
151;SDS011;68;48.792;9.164;2023-02-28T04:16:43;12.52;;;9.30;;
151;SDS011;68;48.792;9.164;2023-02-28T04:19:11;15.10;;;10.18;;
151;SDS011;68;48.792;9.164;2023-02-28T04:21:40;12.52;;;9.15;;
151;SDS011;68;48.792;9.164;2023-02-28T04:24:10;11.85;;;9.25;;
151;SDS011;68;48.792;9.164;2023-02-28T04:26:40;13.45;;;9.80;;
151;SDS011;68;48.792;9.164;2023-02-28T04:29:08;12.57;;;9.18;;
151;SDS011;68;48.792;9.164;2023-02-28T04:31:40;16.27;;;10.57;;
151;SDS011;68;48.792;9.164;2023-02-28T04:34:07;14.38;;;10.35;;
151;SDS011;68;48.792;9.164;2023-02-28T04:36:33;13.70;;;9.50;;
151;SDS011;68;48.792;9.164;2023-02-28T04:39:00;12.50;;;9.25;;
151;SDS011;68;48.792;9.164;2023-02-28T04:41:30;16.00;;;10.25;;
151;SDS011;68;48.792;9.164;2023-02-28T04:43:57;14.00;;;9.88;;
151;SDS011;68;48.792;9.164;2023-02-28T04:46:23;14.82;;;10.63;;
151;SDS011;68;48.792;9.164;2023-02-28T04:48:50;14.05;;;10.00;;
151;SDS011;68;48.792;9.164;2023-02-28T04:51:18;13.60;;;9.20;;
151;SDS011;68;48.792;9.164;2023-02-28T04:53:45;14.70;;;10.15;;
151;SDS011;68;48.792;9.164;2023-02-28T04:56:14;13.88;;;10.02;;
151;SDS011;68;48.792;9.164;2023-02-28T04:58:44;15.02;;;9.93;;
151;SDS011;68;48.792;9.164;2023-02-28T05:01:21;15.18;;;10.57;;
151;SDS011;68;48.792;9.164;2023-02-28T05:03:50;11.45;;;9.07;;
151;SDS011;68;48.792;9.164;2023-02-28T05:06:19;11.55;;;8.70;;
151;SDS011;68;48.792;9.164;2023-02-28T05:08:46;13.90;;;10.30;;
151;SDS011;68;48.792;9.164;2023-02-28T05:11:15;14.65;;;9.90;;
151;SDS011;68;48.792;9.164;2023-02-28T05:13:45;14.38;;;9.80;;
151;SDS011;68;48.792;9.164;2023-02-28T05:16:12;14.15;;;10.23;;
151;SDS011;68;48.792;9.164;2023-02-28T05:18:39;12.68;;;9.25;;
151;SDS011;68;48.792;9.164;2023-02-28T05:21:12;16.77;;;10.88;;
151;SDS011;68;48.792;9.164;2023-02-28T05:23:53;13.40;;;9.80;;
151;SDS011;68;48.792;9.164;2023-02-28T05:26:21;15.50;;;11.02;;
151;SDS011;68;48.792;9.164;2023-02-28T05:28:49;15.43;;;10.60;;
151;SDS011;68;48.792;9.164;2023-02-28T05:31:16;14.55;;;9.98;;
151;SDS011;68;48.792;9.164;2023-02-28T05:33:43;15.73;;;11.23;;
151;SDS011;68;48.792;9.164;2023-02-28T05:36:10;15.02;;;10.93;;
151;SDS011;68;48.792;9.164;2023-02-28T05:38:36;16.70;;;11.00;;
151;SDS011;68;48.792;9.164;2023-02-28T05:41:06;18.60;;;11.00;;
151;SDS011;68;48.792;9.164;2023-02-28T05:43:34;17.15;;;11.05;;
151;SDS011;68;48.792;9.164;2023-02-28T05:46:04;14.73;;;9.90;;
151;SDS011;68;48.792;9.164;2023-02-28T05:48:31;16.05;;;10.70;;
151;SDS011;68;48.792;9.164;2023-02-28T05:51:01;14.98;;;9.90;;
151;SDS011;68;48.792;9.164;2023-02-28T05:53:28;14.70;;;10.50;;
151;SDS011;68;48.792;9.164;2023-02-28T05:55:55;15.27;;;10.50;;
151;SDS011;68;48.792;9.164;2023-02-28T05:58:22;14.52;;;10.30;;
151;SDS011;68;48.792;9.164;2023-02-28T06:00:54;17.08;;;10.52;;
151;SDS011;68;48.792;9.164;2023-02-28T06:03:22;14.20;;;10.88;;
151;SDS011;68;48.792;9.164;2023-02-28T06:05:49;15.30;;;10.70;;
151;SDS011;68;48.792;9.164;2023-02-28T06:08:16;17.73;;;10.60;;
151;SDS011;68;48.792;9.164;2023-02-28T06:10:43;16.60;;;11.27;;
151;SDS011;68;48.792;9.164;2023-02-28T06:13:13;15.20;;;10.93;;
151;SDS011;68;48.792;9.164;2023-02-28T06:15:40;18.30;;;11.60;;
151;SDS011;68;48.792;9.164;2023-02-28T06:18:07;17.67;;;11.07;;
151;SDS011;68;48.792;9.164;2023-02-28T06:20:35;15.02;;;10.93;;
151;SDS011;68;48.792;9.164;2023-02-28T06:23:01;15.48;;;10.20;;
151;SDS011;68;48.792;9.164;2023-02-28T06:25:28;18.70;;;11.13;;
151;SDS011;68;48.792;9.164;2023-02-28T06:27:55;17.25;;;11.35;;
151;SDS011;68;48.792;9.164;2023-02-28T06:30:22;15.43;;;10.73;;
151;SDS011;68;48.792;9.164;2023-02-28T06:32:51;15.93;;;10.90;;
151;SDS011;68;48.792;9.164;2023-02-28T06:35:18;16.05;;;10.88;;
151;SDS011;68;48.792;9.164;2023-02-28T06:37:47;16.02;;;11.05;;
151;SDS011;68;48.792;9.164;2023-02-28T06:40:14;16.17;;;11.43;;
151;SDS011;68;48.792;9.164;2023-02-28T06:42:41;21.42;;;12.05;;
151;SDS011;68;48.792;9.164;2023-02-28T06:45:08;15.95;;;10.82;;
151;SDS011;68;48.792;9.164;2023-02-28T06:47:36;16.13;;;11.50;;
151;SDS011;68;48.792;9.164;2023-02-28T06:50:05;14.60;;;10.95;;
151;SDS011;68;48.792;9.164;2023-02-28T06:52:33;16.83;;;11.68;;
151;SDS011;68;48.792;9.164;2023-02-28T06:55:02;15.50;;;10.65;;
151;SDS011;68;48.792;9.164;2023-02-28T06:57:30;15.20;;;10.45;;
151;SDS011;68;48.792;9.164;2023-02-28T06:59:58;15.32;;;10.82;;
151;SDS011;68;48.792;9.164;2023-02-28T07:02:25;16.33;;;11.45;;
151;SDS011;68;48.792;9.164;2023-02-28T07:04:52;17.23;;;11.95;;
151;SDS011;68;48.792;9.164;2023-02-28T07:07:19;18.95;;;11.55;;
151;SDS011;68;48.792;9.164;2023-02-28T07:09:46;15.73;;;11.02;;
151;SDS011;68;48.792;9.164;2023-02-28T07:12:17;17.20;;;12.10;;
151;SDS011;68;48.792;9.164;2023-02-28T07:14:44;17.40;;;11.43;;
151;SDS011;68;48.792;9.164;2023-02-28T07:17:11;16.15;;;11.35;;
151;SDS011;68;48.792;9.164;2023-02-28T07:19:38;18.40;;;11.60;;
151;SDS011;68;48.792;9.164;2023-02-28T07:22:05;19.30;;;11.85;;
151;SDS011;68;48.792;9.164;2023-02-28T07:24:33;18.83;;;11.80;;
151;SDS011;68;48.792;9.164;2023-02-28T07:27:00;21.63;;;12.18;;
151;SDS011;68;48.792;9.164;2023-02-28T07:29:31;20.75;;;12.30;;
151;SDS011;68;48.792;9.164;2023-02-28T07:31:58;16.95;;;11.00;;
151;SDS011;68;48.792;9.164;2023-02-28T07:34:25;16.35;;;11.45;;
151;SDS011;68;48.792;9.164;2023-02-28T07:36:52;20.50;;;11.93;;
151;SDS011;68;48.792;9.164;2023-02-28T07:39:19;17.98;;;11.80;;
151;SDS011;68;48.792;9.164;2023-02-28T07:41:46;19.20;;;12.75;;
151;SDS011;68;48.792;9.164;2023-02-28T07:44:13;18.08;;;11.60;;
151;SDS011;68;48.792;9.164;2023-02-28T07:46:42;17.42;;;11.57;;
151;SDS011;68;48.792;9.164;2023-02-28T07:49:08;17.40;;;11.55;;
151;SDS011;68;48.792;9.164;2023-02-28T07:51:35;17.67;;;11.75;;
151;SDS011;68;48.792;9.164;2023-02-28T07:54:02;18.15;;;12.48;;
151;SDS011;68;48.792;9.164;2023-02-28T07:56:29;20.67;;;12.70;;
151;SDS011;68;48.792;9.164;2023-02-28T07:58:56;17.50;;;12.30;;
151;SDS011;68;48.792;9.164;2023-02-28T08:01:22;17.73;;;12.75;;
151;SDS011;68;48.792;9.164;2023-02-28T08:03:50;18.60;;;12.48;;
151;SDS011;68;48.792;9.164;2023-02-28T08:06:19;18.85;;;12.10;;
151;SDS011;68;48.792;9.164;2023-02-28T08:08:47;20.17;;;11.77;;
151;SDS011;68;48.792;9.164;2023-02-28T08:11:14;18.08;;;12.10;;
151;SDS011;68;48.792;9.164;2023-02-28T08:13:42;21.95;;;13.05;;
151;SDS011;68;48.792;9.164;2023-02-28T08:16:09;17.83;;;13.05;;
151;SDS011;68;48.792;9.164;2023-02-28T08:18:37;19.38;;;12.75;;
151;SDS011;68;48.792;9.164;2023-02-28T08:21:08;17.27;;;12.40;;
151;SDS011;68;48.792;9.164;2023-02-28T08:23:35;20.25;;;11.93;;
151;SDS011;68;48.792;9.164;2023-02-28T08:26:03;19.90;;;13.38;;
151;SDS011;68;48.792;9.164;2023-02-28T08:28:30;17.63;;;12.52;;
151;SDS011;68;48.792;9.164;2023-02-28T08:30:57;18.42;;;12.57;;
151;SDS011;68;48.792;9.164;2023-02-28T08:33:24;23.00;;;14.00;;
151;SDS011;68;48.792;9.164;2023-02-28T08:35:53;17.40;;;11.02;;
151;SDS011;68;48.792;9.164;2023-02-28T08:38:21;21.67;;;13.18;;
151;SDS011;68;48.792;9.164;2023-02-28T08:40:48;21.33;;;13.48;;
151;SDS011;68;48.792;9.164;2023-02-28T08:43:15;21.20;;;14.27;;
151;SDS011;68;48.792;9.164;2023-02-28T08:45:42;19.98;;;13.18;;
151;SDS011;68;48.792;9.164;2023-02-28T08:48:09;21.63;;;13.65;;
151;SDS011;68;48.792;9.164;2023-02-28T08:50:36;19.83;;;13.65;;
151;SDS011;68;48.792;9.164;2023-02-28T08:53:02;22.88;;;14.85;;
151;SDS011;68;48.792;9.164;2023-02-28T08:55:30;19.02;;;13.75;;
151;SDS011;68;48.792;9.164;2023-02-28T08:57:57;20.92;;;13.82;;
151;SDS011;68;48.792;9.164;2023-02-28T09:00:26;22.85;;;14.25;;
151;SDS011;68;48.792;9.164;2023-02-28T09:02:53;23.38;;;14.13;;
151;SDS011;68;48.792;9.164;2023-02-28T09:05:19;21.55;;;13.68;;
151;SDS011;68;48.792;9.164;2023-02-28T09:07:46;22.30;;;14.43;;
151;SDS011;68;48.792;9.164;2023-02-28T09:10:13;20.13;;;14.00;;
151;SDS011;68;48.792;9.164;2023-02-28T09:12:43;23.55;;;14.15;;
151;SDS011;68;48.792;9.164;2023-02-28T09:15:12;19.70;;;13.40;;
151;SDS011;68;48.792;9.164;2023-02-28T09:17:39;20.15;;;14.18;;
151;SDS011;68;48.792;9.164;2023-02-28T09:20:06;21.23;;;14.30;;
151;SDS011;68;48.792;9.164;2023-02-28T09:22:36;24.10;;;14.07;;
151;SDS011;68;48.792;9.164;2023-02-28T09:25:04;21.60;;;14.18;;
151;SDS011;68;48.792;9.164;2023-02-28T09:27:31;21.85;;;14.20;;
151;SDS011;68;48.792;9.164;2023-02-28T09:29:59;28.27;;;15.65;;
151;SDS011;68;48.792;9.164;2023-02-28T09:32:25;22.00;;;13.95;;
151;SDS011;68;48.792;9.164;2023-02-28T09:34:52;27.67;;;14.57;;
151;SDS011;68;48.792;9.164;2023-02-28T09:37:19;20.95;;;14.70;;
151;SDS011;68;48.792;9.164;2023-02-28T09:39:46;19.77;;;13.85;;
151;SDS011;68;48.792;9.164;2023-02-28T09:42:17;22.52;;;14.60;;
151;SDS011;68;48.792;9.164;2023-02-28T09:44:49;28.70;;;15.32;;
151;SDS011;68;48.792;9.164;2023-02-28T09:47:21;25.52;;;15.52;;
151;SDS011;68;48.792;9.164;2023-02-28T09:49:56;25.65;;;15.13;;
151;SDS011;68;48.792;9.164;2023-02-28T09:52:29;24.83;;;14.40;;
151;SDS011;68;48.792;9.164;2023-02-28T09:55:04;21.35;;;13.80;;
151;SDS011;68;48.792;9.164;2023-02-28T09:57:45;21.70;;;14.93;;
151;SDS011;68;48.792;9.164;2023-02-28T10:00:13;22.45;;;14.45;;
151;SDS011;68;48.792;9.164;2023-02-28T10:02:48;23.27;;;15.60;;
151;SDS011;68;48.792;9.164;2023-02-28T10:05:30;24.42;;;15.57;;
151;SDS011;68;48.792;9.164;2023-02-28T10:08:02;22.08;;;14.10;;
151;SDS011;68;48.792;9.164;2023-02-28T10:10:35;24.92;;;14.15;;
151;SDS011;68;48.792;9.164;2023-02-28T10:13:06;20.95;;;14.43;;
151;SDS011;68;48.792;9.164;2023-02-28T10:15:42;22.30;;;14.93;;
151;SDS011;68;48.792;9.164;2023-02-28T10:18:16;24.85;;;15.18;;
151;SDS011;68;48.792;9.164;2023-02-28T10:20:49;25.75;;;15.90;;
151;SDS011;68;48.792;9.164;2023-02-28T10:23:19;24.05;;;15.63;;
151;SDS011;68;48.792;9.164;2023-02-28T10:25:50;21.42;;;14.65;;
151;SDS011;68;48.792;9.164;2023-02-28T10:28:27;25.48;;;15.77;;
151;SDS011;68;48.792;9.164;2023-02-28T10:30:56;20.88;;;14.60;;
151;SDS011;68;48.792;9.164;2023-02-28T10:33:28;21.77;;;15.05;;
151;SDS011;68;48.792;9.164;2023-02-28T10:35:57;22.45;;;15.10;;
151;SDS011;68;48.792;9.164;2023-02-28T10:38:27;22.30;;;13.93;;
151;SDS011;68;48.792;9.164;2023-02-28T10:41:05;21.25;;;14.20;;
151;SDS011;68;48.792;9.164;2023-02-28T10:43:36;23.00;;;15.85;;
151;SDS011;68;48.792;9.164;2023-02-28T10:46:05;20.55;;;13.93;;
151;SDS011;68;48.792;9.164;2023-02-28T10:48:42;22.45;;;14.77;;
151;SDS011;68;48.792;9.164;2023-02-28T10:51:13;22.10;;;14.90;;
151;SDS011;68;48.792;9.164;2023-02-28T10:53:47;22.58;;;14.60;;
151;SDS011;68;48.792;9.164;2023-02-28T10:56:19;22.33;;;15.13;;
151;SDS011;68;48.792;9.164;2023-02-28T10:58:49;23.23;;;14.48;;
151;SDS011;68;48.792;9.164;2023-02-28T11:01:21;25.05;;;16.17;;
151;SDS011;68;48.792;9.164;2023-02-28T11:03:50;23.92;;;14.35;;
151;SDS011;68;48.792;9.164;2023-02-28T11:06:18;22.70;;;13.48;;
151;SDS011;68;48.792;9.164;2023-02-28T11:08:48;24.05;;;15.25;;
151;SDS011;68;48.792;9.164;2023-02-28T11:11:17;22.25;;;14.32;;
151;SDS011;68;48.792;9.164;2023-02-28T11:13:46;21.33;;;13.75;;
151;SDS011;68;48.792;9.164;2023-02-28T11:16:15;21.13;;;12.93;;
151;SDS011;68;48.792;9.164;2023-02-28T11:18:43;19.00;;;12.88;;
151;SDS011;68;48.792;9.164;2023-02-28T11:21:20;20.40;;;14.05;;
151;SDS011;68;48.792;9.164;2023-02-28T11:23:49;20.13;;;14.32;;
151;SDS011;68;48.792;9.164;2023-02-28T11:26:35;24.10;;;13.98;;
151;SDS011;68;48.792;9.164;2023-02-28T11:29:05;19.17;;;13.13;;
151;SDS011;68;48.792;9.164;2023-02-28T11:31:37;19.40;;;12.90;;
151;SDS011;68;48.792;9.164;2023-02-28T11:34:10;18.10;;;12.10;;
151;SDS011;68;48.792;9.164;2023-02-28T11:36:54;20.42;;;13.05;;
151;SDS011;68;48.792;9.164;2023-02-28T11:39:23;19.35;;;13.77;;
151;SDS011;68;48.792;9.164;2023-02-28T11:41:54;19.67;;;13.25;;
151;SDS011;68;48.792;9.164;2023-02-28T11:44:38;20.63;;;13.55;;
151;SDS011;68;48.792;9.164;2023-02-28T11:47:17;24.63;;;14.05;;
151;SDS011;68;48.792;9.164;2023-02-28T11:49:52;22.13;;;13.90;;
151;SDS011;68;48.792;9.164;2023-02-28T11:52:33;21.90;;;13.77;;
151;SDS011;68;48.792;9.164;2023-02-28T11:55:07;18.33;;;12.90;;
151;SDS011;68;48.792;9.164;2023-02-28T11:57:49;20.98;;;13.07;;
151;SDS011;68;48.792;9.164;2023-02-28T12:00:30;20.63;;;14.48;;
151;SDS011;68;48.792;9.164;2023-02-28T12:03:08;19.67;;;13.65;;
151;SDS011;68;48.792;9.164;2023-02-28T12:05:43;19.55;;;13.75;;
151;SDS011;68;48.792;9.164;2023-02-28T12:08:20;19.30;;;13.65;;
151;SDS011;68;48.792;9.164;2023-02-28T12:10:54;19.08;;;13.18;;
151;SDS011;68;48.792;9.164;2023-02-28T12:13:29;22.10;;;14.88;;
151;SDS011;68;48.792;9.164;2023-02-28T12:19:03;21.92;;;14.27;;
151;SDS011;68;48.792;9.164;2023-02-28T12:21:39;23.08;;;15.30;;
151;SDS011;68;48.792;9.164;2023-02-28T12:24:21;21.52;;;13.10;;
151;SDS011;68;48.792;9.164;2023-02-28T12:27:14;18.92;;;13.52;;
151;SDS011;68;48.792;9.164;2023-02-28T12:29:46;18.92;;;13.52;;
151;SDS011;68;48.792;9.164;2023-02-28T12:32:18;20.65;;;14.15;;
151;SDS011;68;48.792;9.164;2023-02-28T12:34:50;21.13;;;14.07;;
151;SDS011;68;48.792;9.164;2023-02-28T12:37:20;20.10;;;13.55;;
151;SDS011;68;48.792;9.164;2023-02-28T12:39:54;19.17;;;14.52;;
151;SDS011;68;48.792;9.164;2023-02-28T12:42:28;21.02;;;13.90;;
151;SDS011;68;48.792;9.164;2023-02-28T12:44:58;24.52;;;14.38;;
151;SDS011;68;48.792;9.164;2023-02-28T12:47:27;18.95;;;13.20;;
151;SDS011;68;48.792;9.164;2023-02-28T12:49:56;22.00;;;14.15;;
151;SDS011;68;48.792;9.164;2023-02-28T12:52:26;19.27;;;14.10;;
151;SDS011;68;48.792;9.164;2023-02-28T12:55:01;19.65;;;12.85;;
151;SDS011;68;48.792;9.164;2023-02-28T12:57:32;21.52;;;14.65;;
151;SDS011;68;48.792;9.164;2023-02-28T13:00:08;22.15;;;14.23;;
151;SDS011;68;48.792;9.164;2023-02-28T13:02:45;18.02;;;13.18;;
151;SDS011;68;48.792;9.164;2023-02-28T13:05:31;23.60;;;15.15;;
151;SDS011;68;48.792;9.164;2023-02-28T13:11:31;23.80;;;14.10;;
151;SDS011;68;48.792;9.164;2023-02-28T13:14:05;20.40;;;14.25;;
151;SDS011;68;48.792;9.164;2023-02-28T13:16:54;23.88;;;13.70;;
151;SDS011;68;48.792;9.164;2023-02-28T13:19:27;21.75;;;14.75;;
151;SDS011;68;48.792;9.164;2023-02-28T13:21:56;17.77;;;12.70;;
151;SDS011;68;48.792;9.164;2023-02-28T13:24:38;22.48;;;14.00;;
151;SDS011;68;48.792;9.164;2023-02-28T13:27:19;18.63;;;12.60;;
151;SDS011;68;48.792;9.164;2023-02-28T13:29:50;19.02;;;13.57;;
151;SDS011;68;48.792;9.164;2023-02-28T13:32:32;21.25;;;13.52;;
151;SDS011;68;48.792;9.164;2023-02-28T13:35:14;21.95;;;14.55;;
151;SDS011;68;48.792;9.164;2023-02-28T13:38:09;23.95;;;14.10;;
151;SDS011;68;48.792;9.164;2023-02-28T13:40:42;18.27;;;13.57;;
151;SDS011;68;48.792;9.164;2023-02-28T13:43:11;20.65;;;13.73;;
151;SDS011;68;48.792;9.164;2023-02-28T13:48:36;21.80;;;14.38;;
151;SDS011;68;48.792;9.164;2023-02-28T13:54:06;20.08;;;13.68;;
151;SDS011;68;48.792;9.164;2023-02-28T13:56:47;23.10;;;13.73;;
151;SDS011;68;48.792;9.164;2023-02-28T13:59:23;20.75;;;13.52;;
151;SDS011;68;48.792;9.164;2023-02-28T14:02:01;20.15;;;13.52;;
151;SDS011;68;48.792;9.164;2023-02-28T14:04:53;21.67;;;13.23;;
151;SDS011;68;48.792;9.164;2023-02-28T14:07:31;19.02;;;12.77;;
151;SDS011;68;48.792;9.164;2023-02-28T14:10:04;19.42;;;12.93;;
151;SDS011;68;48.792;9.164;2023-02-28T14:12:52;18.40;;;12.95;;
151;SDS011;68;48.792;9.164;2023-02-28T14:18:32;19.65;;;12.90;;
151;SDS011;68;48.792;9.164;2023-02-28T14:21:01;26.02;;;13.55;;
151;SDS011;68;48.792;9.164;2023-02-28T14:27:04;18.08;;;12.30;;
151;SDS011;68;48.792;9.164;2023-02-28T14:32:47;22.45;;;12.90;;
151;SDS011;68;48.792;9.164;2023-02-28T14:35:29;19.50;;;12.98;;
151;SDS011;68;48.792;9.164;2023-02-28T14:38:14;18.38;;;13.25;;
151;SDS011;68;48.792;9.164;2023-02-28T14:40:46;19.75;;;13.57;;
151;SDS011;68;48.792;9.164;2023-02-28T14:43:18;19.95;;;13.52;;
151;SDS011;68;48.792;9.164;2023-02-28T14:45:49;17.35;;;12.63;;
151;SDS011;68;48.792;9.164;2023-02-28T14:48:17;22.05;;;12.75;;
151;SDS011;68;48.792;9.164;2023-02-28T14:50:51;26.85;;;13.23;;
151;SDS011;68;48.792;9.164;2023-02-28T14:53:19;17.92;;;12.48;;
151;SDS011;68;48.792;9.164;2023-02-28T14:55:48;17.50;;;12.77;;
151;SDS011;68;48.792;9.164;2023-02-28T14:58:21;20.23;;;13.75;;
151;SDS011;68;48.792;9.164;2023-02-28T15:00:50;17.70;;;12.20;;
151;SDS011;68;48.792;9.164;2023-02-28T15:03:19;21.67;;;13.45;;
151;SDS011;68;48.792;9.164;2023-02-28T15:05:52;19.13;;;13.18;;
151;SDS011;68;48.792;9.164;2023-02-28T15:08:20;21.13;;;12.88;;
151;SDS011;68;48.792;9.164;2023-02-28T15:10:50;17.50;;;12.77;;
151;SDS011;68;48.792;9.164;2023-02-28T15:13:20;19.67;;;13.07;;
151;SDS011;68;48.792;9.164;2023-02-28T15:15:48;19.20;;;13.15;;
151;SDS011;68;48.792;9.164;2023-02-28T15:18:25;20.00;;;13.10;;
151;SDS011;68;48.792;9.164;2023-02-28T15:20:57;31.05;;;13.07;;
151;SDS011;68;48.792;9.164;2023-02-28T15:23:29;19.90;;;13.25;;
151;SDS011;68;48.792;9.164;2023-02-28T15:25:57;22.45;;;14.13;;
151;SDS011;68;48.792;9.164;2023-02-28T15:28:24;21.45;;;14.55;;
151;SDS011;68;48.792;9.164;2023-02-28T15:30:52;18.48;;;12.68;;
151;SDS011;68;48.792;9.164;2023-02-28T15:33:21;25.20;;;13.30;;
151;SDS011;68;48.792;9.164;2023-02-28T15:35:50;21.17;;;13.98;;
151;SDS011;68;48.792;9.164;2023-02-28T15:38:21;19.17;;;13.45;;
151;SDS011;68;48.792;9.164;2023-02-28T15:40:50;20.80;;;13.63;;
151;SDS011;68;48.792;9.164;2023-02-28T15:43:25;20.10;;;13.30;;
151;SDS011;68;48.792;9.164;2023-02-28T15:45:55;19.25;;;12.95;;
151;SDS011;68;48.792;9.164;2023-02-28T15:48:25;18.92;;;13.13;;
151;SDS011;68;48.792;9.164;2023-02-28T15:50:54;21.30;;;13.90;;
151;SDS011;68;48.792;9.164;2023-02-28T15:53:25;19.88;;;13.70;;
151;SDS011;68;48.792;9.164;2023-02-28T15:55:55;22.48;;;14.38;;
151;SDS011;68;48.792;9.164;2023-02-28T15:58:27;20.63;;;14.05;;
151;SDS011;68;48.792;9.164;2023-02-28T16:01:04;20.60;;;13.00;;
151;SDS011;68;48.792;9.164;2023-02-28T16:03:44;24.60;;;13.88;;
151;SDS011;68;48.792;9.164;2023-02-28T16:09:08;23.58;;;13.50;;
151;SDS011;68;48.792;9.164;2023-02-28T16:11:38;23.45;;;13.88;;
151;SDS011;68;48.792;9.164;2023-02-28T16:14:10;20.23;;;13.50;;
151;SDS011;68;48.792;9.164;2023-02-28T16:16:41;20.48;;;14.20;;
151;SDS011;68;48.792;9.164;2023-02-28T16:19:09;20.85;;;14.10;;
151;SDS011;68;48.792;9.164;2023-02-28T16:21:36;23.85;;;14.02;;
151;SDS011;68;48.792;9.164;2023-02-28T16:24:02;21.05;;;14.27;;
151;SDS011;68;48.792;9.164;2023-02-28T16:26:31;21.50;;;14.30;;
151;SDS011;68;48.792;9.164;2023-02-28T16:28:59;20.17;;;14.05;;
151;SDS011;68;48.792;9.164;2023-02-28T16:31:26;20.95;;;14.00;;
151;SDS011;68;48.792;9.164;2023-02-28T16:33:54;23.15;;;14.77;;